Time;durP1;ratioP1;P1;durP2;ratioP2;P2;SDS_P1;SDS_P2;PMS_P1;PMS_P2;Temp;Humidity;BMP_temperature;BMP_pressure;BME280_temperature;BME280_humidity;BME280_pressure;Samples;Min_cycle;Max_cycle;Signal;HPM_P1;HPM_P2
2024/02/04 00:00:43;;;;;;;7.43;5.05;;;;;;;8.89;100.00;102091.81;4996249;28;20088;-80
2024/02/04 00:03:09;;;;;;;8.35;5.20;;;;;;;8.92;100.00;102096.75;4991303;28;20019;-80
2024/02/04 00:05:34;;;;;;;10.80;5.78;;;;;;;8.87;100.00;102091.94;4992079;28;20037;-80
2024/02/04 00:08:00;;;;;;;10.90;5.70;;;;;;;8.91;100.00;102085.59;4991597;28;20037;-78
2024/02/04 00:10:26;;;;;;;11.63;6.13;;;;;;;8.97;100.00;102076.56;5004648;28;20747;-79
2024/02/04 00:12:52;;;;;;;9.70;6.25;;;;;;;8.89;100.00;102064.19;5022617;28;20026;-80
2024/02/04 00:15:17;;;;;;;9.43;6.20;;;;;;;8.92;100.00;102063.94;5008665;28;20128;-81
2024/02/04 00:17:43;;;;;;;12.00;6.63;;;;;;;8.85;100.00;102061.94;5012099;28;20124;-81
2024/02/04 00:20:08;;;;;;;10.05;6.35;;;;;;;8.90;100.00;102060.66;5004099;28;20041;-80
2024/02/04 00:22:35;;;;;;;10.38;6.13;;;;;;;8.92;100.00;102063.13;4991415;28;20021;-81
2024/02/04 00:25:04;;;;;;;12.18;7.90;;;;;;;9.01;100.00;102057.28;4994944;28;20614;-81
2024/02/04 00:27:33;;;;;;;11.02;6.88;;;;;;;9.00;100.00;102058.19;5010623;28;20033;-80
2024/02/04 00:29:59;;;;;;;11.18;6.45;;;;;;;8.98;100.00;102065.25;4992827;28;20046;-80
2024/02/04 00:32:25;;;;;;;10.85;7.40;;;;;;;8.95;100.00;102068.91;5011384;28;20037;-80
2024/02/04 00:34:52;;;;;;;11.43;7.40;;;;;;;8.96;100.00;102064.53;5025531;28;20030;-80
2024/02/04 00:37:17;;;;;;;10.63;6.55;;;;;;;8.95;100.00;102065.50;4993814;28;20036;-80
2024/02/04 00:39:42;;;;;;;10.18;6.78;;;;;;;8.91;100.00;102064.91;4995635;28;20118;-81
2024/02/04 00:42:08;;;;;;;11.25;6.57;;;;;;;8.92;100.00;102069.13;4995323;28;20026;-81
2024/02/04 00:44:33;;;;;;;11.85;7.38;;;;;;;8.85;100.00;102067.91;5028779;28;20038;-79
2024/02/04 00:46:59;;;;;;;11.85;6.85;;;;;;;8.91;100.00;102074.41;4992505;28;20042;-81
2024/02/04 00:49:26;;;;;;;10.95;6.85;;;;;;;8.92;100.00;102066.53;4990166;28;20050;-80
2024/02/04 00:51:51;;;;;;;11.15;6.72;;;;;;;8.97;100.00;102071.38;5011190;28;20038;-81
2024/02/04 00:54:17;;;;;;;12.50;6.75;;;;;;;8.99;100.00;102074.69;5007652;28;20653;-81
2024/02/04 00:56:42;;;;;;;11.57;6.55;;;;;;;8.91;100.00;102069.22;5012924;28;20049;-80
2024/02/04 00:59:08;;;;;;;11.18;6.03;;;;;;;8.95;100.00;102075.84;4990846;28;20092;-80
2024/02/04 01:01:33;;;;;;;10.55;5.53;;;;;;;8.97;100.00;102076.56;4994124;28;20048;-79
2024/02/04 01:03:59;;;;;;;8.98;5.93;;;;;;;8.90;100.00;102073.59;5022217;28;20025;-82
2024/02/04 01:06:25;;;;;;;9.65;6.13;;;;;;;8.95;100.00;102070.66;4990298;28;20030;-78
2024/02/04 01:08:51;;;;;;;10.20;5.55;;;;;;;9.02;100.00;102069.25;4988115;28;20153;-80
2024/02/04 01:11:16;;;;;;;10.90;5.75;;;;;;;8.89;100.00;102069.38;4994975;28;20050;-80
2024/02/04 01:13:42;;;;;;;10.57;5.72;;;;;;;8.94;100.00;102059.47;5009409;28;20088;-80
2024/02/04 01:16:07;;;;;;;8.23;5.55;;;;;;;8.96;100.00;102064.53;4991712;28;20030;-81
2024/02/04 01:18:33;;;;;;;11.93;5.35;;;;;;;8.94;100.00;102072.41;4989295;28;20485;-80
2024/02/04 01:21:00;;;;;;;10.13;4.90;;;;;;;8.98;100.00;102062.66;5001579;28;20038;-80
2024/02/04 01:23:26;;;;;;;9.73;5.13;;;;;;;8.91;100.00;102061.47;5002407;28;20092;-79
2024/02/04 01:25:52;;;;;;;7.63;4.75;;;;;;;8.98;100.00;102067.84;5001935;28;20038;-80
2024/02/04 01:28:18;;;;;;;5.93;4.38;;;;;;;9.02;100.00;102064.06;5021038;28;20101;-79
2024/02/04 01:30:43;;;;;;;6.22;4.15;;;;;;;9.05;100.00;102063.03;5002452;28;20030;-79
2024/02/04 01:33:09;;;;;;;9.05;4.07;;;;;;;8.98;100.00;102069.59;5008520;28;20551;-79
2024/02/04 01:35:35;;;;;;;6.45;4.63;;;;;;;9.01;100.00;102072.78;4990452;28;20042;-78
2024/02/04 01:38:00;;;;;;;7.80;4.60;;;;;;;9.05;100.00;102070.81;5013926;28;20073;-79
2024/02/04 01:40:26;;;;;;;6.60;4.18;;;;;;;8.98;100.00;102062.66;5028149;28;20042;-78
2024/02/04 01:42:51;;;;;;;7.28;4.88;;;;;;;9.06;100.00;102062.09;4991833;28;20402;-78
2024/02/04 01:45:17;;;;;;;7.63;5.47;;;;;;;9.15;100.00;102067.41;5022911;28;20041;-79
2024/02/04 01:47:42;;;;;;;7.53;4.90;;;;;;;9.08;100.00;102061.06;4999889;28;20046;-80
2024/02/04 01:50:08;;;;;;;8.48;5.35;;;;;;;9.10;100.00;102069.53;4988365;28;20040;-80
2024/02/04 01:52:37;;;;;;;8.57;5.35;;;;;;;9.07;100.00;102055.97;4998053;28;20042;-80
2024/02/04 01:55:05;;;;;;;7.75;5.60;;;;;;;9.06;100.00;102069.84;5028447;28;20045;-80
2024/02/04 01:57:37;;;;;;;9.45;5.72;;;;;;;8.98;100.00;102059.25;4994408;28;20026;-79
2024/02/04 02:00:04;;;;;;;9.50;6.80;;;;;;;9.05;100.00;102071.63;5040303;28;20634;-79
2024/02/04 02:02:34;;;;;;;9.63;5.45;;;;;;;9.12;100.00;102061.66;5015102;28;20033;-79
2024/02/04 02:04:59;;;;;;;10.88;5.50;;;;;;;9.09;100.00;102067.03;5011599;28;20041;-79
2024/02/04 02:07:27;;;;;;;11.55;5.85;;;;;;;9.08;100.00;102058.47;5025405;28;20045;-79
2024/02/04 02:09:53;;;;;;;8.88;6.05;;;;;;;9.08;100.00;102061.06;5020149;28;20096;-78
2024/02/04 02:12:29;;;;;;;10.60;6.55;;;;;;;9.07;100.00;102058.56;5013316;28;20557;-80
2024/02/04 02:15:15;;;;;;;11.20;6.63;;;;;;;9.07;100.00;102056.81;5012850;28;20949;-80
2024/02/04 02:17:55;;;;;;;10.93;7.05;;;;;;;8.96;100.00;102052.44;5000861;28;20025;-80
2024/02/04 02:20:36;;;;;;;11.50;7.00;;;;;;;9.05;100.00;102050.91;4992608;28;20049;-80
2024/02/04 02:23:14;;;;;;;10.60;6.90;;;;;;;9.05;100.00;102055.28;4999986;28;20026;-80
2024/02/04 02:25:40;;;;;;;12.98;7.50;;;;;;;9.05;100.00;102052.69;5025844;28;20045;-78
2024/02/04 02:28:06;;;;;;;11.45;7.32;;;;;;;9.11;100.00;102052.22;5009228;28;20130;-79
2024/02/04 02:30:32;;;;;;;12.18;7.72;;;;;;;9.11;100.00;102059.97;5015266;28;20113;-80
2024/02/04 02:32:57;;;;;;;12.95;8.27;;;;;;;9.03;100.00;102065.75;5013586;28;20057;-79
2024/02/04 02:35:23;;;;;;;9.93;7.13;;;;;;;9.06;100.00;102062.09;5018154;28;20041;-80
2024/02/04 02:38:07;;;;;;;13.02;8.55;;;;;;;9.00;100.00;102062.56;4993392;28;20025;-79
2024/02/04 02:40:44;;;;;;;13.32;8.38;;;;;;;9.05;100.00;102063.03;5011136;28;20040;-80
2024/02/04 02:43:11;;;;;;;14.40;8.75;;;;;;;9.00;100.00;102055.59;5026893;28;20525;-80
2024/02/04 02:45:42;;;;;;;13.15;8.38;;;;;;;9.01;100.00;102059.03;4990221;28;20038;-80
2024/02/04 02:48:08;;;;;;;14.27;9.35;;;;;;;9.03;100.00;102063.16;5034424;28;21083;-80
2024/02/04 02:50:35;;;;;;;16.20;9.15;;;;;;;9.03;100.00;102063.16;5006661;28;20489;-80
2024/02/04 02:53:01;;;;;;;16.50;9.98;;;;;;;9.06;100.00;102062.94;4991564;28;20081;-81
2024/02/04 02:55:26;;;;;;;14.77;9.98;;;;;;;9.02;100.00;102061.50;5010336;28;20038;-80
2024/02/04 02:57:52;;;;;;;16.88;9.80;;;;;;;9.16;100.00;102053.53;5008109;28;20037;-80
2024/02/04 03:00:18;;;;;;;16.50;9.82;;;;;;;9.15;100.00;102056.22;4991258;28;20030;-80
2024/02/04 03:02:44;;;;;;;19.00;10.45;;;;;;;9.27;100.00;102054.50;5025839;28;20065;-81
2024/02/04 03:05:09;;;;;;;17.80;10.48;;;;;;;9.16;100.00;102052.72;4988519;28;20034;-81
2024/02/04 03:07:35;;;;;;;16.10;9.65;;;;;;;9.12;100.00;102056.47;4992885;28;20029;-80
2024/02/04 03:10:00;;;;;;;17.15;10.57;;;;;;;9.11;100.00;102050.44;4988799;28;20030;-80
2024/02/04 03:12:26;;;;;;;16.88;10.40;;;;;;;9.03;100.00;102050.22;5002253;28;20066;-80
2024/02/04 03:14:52;;;;;;;14.57;9.50;;;;;;;9.03;100.00;102044.22;4989759;28;20025;-80
2024/02/04 03:17:20;;;;;;;13.23;8.27;;;;;;;9.02;100.00;102051.13;5022899;28;20119;-80
2024/02/04 03:19:47;;;;;;;13.10;8.32;;;;;;;9.05;100.00;102053.50;4989620;28;20598;-80
2024/02/04 03:22:13;;;;;;;12.27;7.45;;;;;;;9.18;100.00;102052.59;5012118;28;20040;-79
2024/02/04 03:24:39;;;;;;;13.30;7.95;;;;;;;9.12;100.00;102057.28;5021586;28;20033;-80
2024/02/04 03:27:04;;;;;;;12.48;8.00;;;;;;;9.16;100.00;102045.75;4991826;28;20026;-80
2024/02/04 03:29:30;;;;;;;15.25;9.02;;;;;;;9.14;100.00;102047.66;4988486;28;20089;-80
2024/02/04 03:31:56;;;;;;;20.40;9.25;;;;;;;9.05;100.00;102044.94;4995827;28;20037;-79
2024/02/04 03:34:21;;;;;;;18.52;9.73;;;;;;;9.22;100.00;102033.31;5007254;28;20041;-78
2024/02/04 03:36:47;;;;;;;21.02;10.80;;;;;;;9.22;100.00;102043.66;5011308;28;20044;-79
2024/02/04 03:39:13;;;;;;;25.10;12.15;;;;;;;9.26;100.00;102047.66;5025545;28;20030;-79
2024/02/04 03:41:38;;;;;;;23.92;13.70;;;;;;;9.30;100.00;102052.47;5025190;28;20030;-79
2024/02/04 03:44:04;;;;;;;20.15;12.68;;;;;;;9.08;100.00;102042.94;5020896;28;20026;-79
2024/02/04 03:46:29;;;;;;;27.35;14.07;;;;;;;9.18;100.00;102047.41;5007438;28;20080;-80
2024/02/04 03:48:55;;;;;;;25.15;14.27;;;;;;;9.24;100.00;102031.41;4989736;28;20413;-78
2024/02/04 03:51:21;;;;;;;25.42;14.70;;;;;;;9.21;100.00;102034.22;5011788;28;20025;-79
2024/02/04 03:53:49;;;;;;;25.98;14.85;;;;;;;9.27;100.00;102041.56;4991776;28;20524;-79
2024/02/04 03:56:15;;;;;;;26.20;14.88;;;;;;;9.13;100.00;102047.75;5012065;28;20404;-79
2024/02/04 03:58:40;;;;;;;25.65;15.48;;;;;;;9.10;100.00;102038.47;4991914;28;20037;-78
2024/02/04 04:01:10;;;;;;;31.55;16.52;;;;;;;9.09;100.00;102026.47;4985766;28;20042;-79
2024/02/04 04:03:35;;;;;;;27.95;15.57;;;;;;;9.16;100.00;102039.78;4991039;28;20026;-79
2024/02/04 04:06:01;;;;;;;31.38;16.30;;;;;;;9.26;100.00;102029.53;4992858;28;20045;-79
2024/02/04 04:08:26;;;;;;;27.00;16.25;;;;;;;9.24;100.00;102032.22;5005437;28;20034;-79
2024/02/04 04:10:52;;;;;;;32.67;17.10;;;;;;;9.24;100.00;102046.94;5007986;28;20091;-79
2024/02/04 04:13:17;;;;;;;29.95;16.02;;;;;;;9.23;100.00;102033.19;4992282;28;20038;-78
2024/02/04 04:15:42;;;;;;;26.77;15.65;;;;;;;9.28;100.00;102038.00;4986814;28;20560;-79
2024/02/04 04:18:10;;;;;;;29.80;16.10;;;;;;;9.28;100.00;102033.66;5009713;28;20059;-78
2024/02/04 04:20:36;;;;;;;26.00;14.95;;;;;;;9.26;100.00;102022.59;4988903;28;20401;-79
2024/02/04 04:23:01;;;;;;;27.33;15.50;;;;;;;9.20;100.00;102036.00;4989847;28;20026;-78
2024/02/04 04:25:27;;;;;;;27.88;15.52;;;;;;;9.27;100.00;102038.97;5008567;28;20029;-79
2024/02/04 04:27:52;;;;;;;36.10;15.93;;;;;;;9.30;100.00;102043.88;5007982;28;20025;-79
2024/02/04 04:30:17;;;;;;;30.73;16.55;;;;;;;9.17;100.00;102033.63;5008932;28;20394;-79
2024/02/04 04:32:43;;;;;;;28.63;16.33;;;;;;;9.12;100.00;102044.34;4993814;28;20037;-79
2024/02/04 04:35:08;;;;;;;34.38;16.23;;;;;;;9.18;100.00;102050.00;5005185;28;20041;-79
2024/02/04 04:37:34;;;;;;;30.92;18.02;;;;;;;9.10;100.00;102054.00;5005976;28;20037;-78
2024/02/04 04:39:59;;;;;;;32.53;18.25;;;;;;;9.14;100.00;102064.94;4991173;28;20093;-78
2024/02/04 04:42:25;;;;;;;36.08;19.58;;;;;;;9.18;100.00;102070.72;5012986;28;20077;-78
2024/02/04 04:44:50;;;;;;;37.47;19.02;;;;;;;9.15;100.00;102062.25;5008571;28;20520;-79
2024/02/04 04:47:15;;;;;;;34.03;18.90;;;;;;;9.25;100.00;102061.53;5008442;28;20034;-79
2024/02/04 04:49:41;;;;;;;32.22;18.77;;;;;;;9.26;100.00;102045.88;5027455;28;20050;-79
2024/02/04 04:52:07;;;;;;;35.50;17.88;;;;;;;9.18;100.00;102044.84;4993565;28;20033;-79
2024/02/04 04:54:32;;;;;;;33.03;18.42;;;;;;;9.19;100.00;102024.00;4994991;28;20044;-80
2024/02/04 04:56:58;;;;;;;37.45;19.63;;;;;;;9.16;100.00;102014.72;5007566;28;20034;-78
2024/02/04 04:59:23;;;;;;;33.45;18.17;;;;;;;9.12;100.00;102013.28;5008085;28;20037;-78
2024/02/04 05:01:48;;;;;;;39.80;18.25;;;;;;;9.14;100.00;102013.19;5022538;28;20038;-78
2024/02/04 05:04:15;;;;;;;32.95;17.60;;;;;;;9.21;100.00;102009.19;4988097;28;20137;-79
2024/02/04 05:06:40;;;;;;;36.17;17.88;;;;;;;9.23;100.00;102020.25;5006325;28;20045;-79
2024/02/04 05:09:06;;;;;;;30.00;16.15;;;;;;;9.26;100.00;102021.78;5023180;28;20048;-78
2024/02/04 05:11:31;;;;;;;41.17;17.20;;;;;;;9.19;100.00;102011.03;4994111;28;20033;-78
2024/02/04 05:13:57;;;;;;;39.42;17.33;;;;;;;9.30;100.00;102018.81;4990590;28;20505;-78
2024/02/04 05:16:22;;;;;;;34.97;16.88;;;;;;;9.18;100.00;102018.97;5006224;28;20030;-79
2024/02/04 05:18:48;;;;;;;30.63;16.75;;;;;;;9.20;100.00;102012.72;5010066;28;20038;-79
2024/02/04 05:21:13;;;;;;;36.10;17.85;;;;;;;9.22;100.00;102010.00;4992576;28;20050;-80
2024/02/04 05:23:39;;;;;;;37.30;17.92;;;;;;;9.25;100.00;101999.41;5010780;28;20500;-78
2024/02/04 05:26:05;;;;;;;38.33;17.58;;;;;;;9.20;100.00;102010.13;4991796;28;20527;-79
2024/02/04 05:28:30;;;;;;;36.20;17.60;;;;;;;9.22;100.00;102012.59;5005179;28;20040;-79
2024/02/04 05:30:56;;;;;;;28.27;16.58;;;;;;;9.21;100.00;102001.44;4987917;28;20038;-78
2024/02/04 05:33:21;;;;;;;37.25;17.45;;;;;;;9.22;100.00;102003.06;5013701;28;20037;-79
2024/02/04 05:35:47;;;;;;;36.17;16.80;;;;;;;9.17;100.00;101997.41;5009444;28;20030;-78
2024/02/04 05:38:12;;;;;;;34.05;16.30;;;;;;;9.14;100.00;101997.66;4991960;28;20428;-79
2024/02/04 05:40:38;;;;;;;34.80;16.05;;;;;;;9.16;100.00;101995.78;4991154;28;20653;-79
2024/02/04 05:43:07;;;;;;;33.13;15.73;;;;;;;9.13;100.00;101996.00;4992203;28;20029;-79
2024/02/04 05:45:34;;;;;;;37.60;15.88;;;;;;;9.19;100.00;101977.41;5006868;28;20034;-79
2024/02/04 05:47:59;;;;;;;37.70;15.35;;;;;;;9.13;100.00;101981.28;4994902;28;20024;-79
2024/02/04 05:50:24;;;;;;;28.55;15.07;;;;;;;9.24;100.00;101977.88;5023131;28;20034;-79
2024/02/04 05:52:50;;;;;;;28.48;14.55;;;;;;;9.24;100.00;101974.47;5003627;28;20035;-79
2024/02/04 05:55:15;;;;;;;33.47;14.57;;;;;;;9.14;100.00;101980.34;5007510;28;20034;-79
2024/02/04 05:57:41;;;;;;;27.75;13.50;;;;;;;9.17;100.00;101968.94;5004914;28;20400;-79
2024/02/04 06:00:10;;;;;;;32.25;14.45;;;;;;;9.24;100.00;101966.72;4990195;28;20052;-79
2024/02/04 06:02:36;;;;;;;29.20;14.38;;;;;;;9.29;100.00;101985.31;5007506;28;20041;-80
2024/02/04 06:05:02;;;;;;;29.58;13.55;;;;;;;9.23;100.00;101988.34;4986873;28;20412;-79
2024/02/04 06:07:28;;;;;;;28.75;13.32;;;;;;;9.23;100.00;101971.06;4992451;28;20034;-79
2024/02/04 06:09:56;;;;;;;30.25;13.85;;;;;;;9.20;100.00;101965.31;5008231;28;20294;-79
2024/02/04 06:12:21;;;;;;;27.10;12.02;;;;;;;9.14;100.00;101971.78;4987684;28;20147;-79
2024/02/04 06:14:47;;;;;;;36.90;13.48;;;;;;;9.14;100.00;101979.53;5008366;28;20033;-79
2024/02/04 06:17:12;;;;;;;28.75;13.90;;;;;;;9.22;100.00;101978.94;5008975;28;20034;-79
2024/02/04 06:19:38;;;;;;;27.35;12.80;;;;;;;9.35;100.00;101988.22;4992299;28;20041;-79
2024/02/04 06:22:03;;;;;;;29.98;12.30;;;;;;;9.25;100.00;101982.13;4993709;28;20022;-79
2024/02/04 06:24:29;;;;;;;28.77;12.82;;;;;;;9.26;100.00;101985.53;5007048;28;20034;-80
2024/02/04 06:26:55;;;;;;;29.13;12.45;;;;;;;9.22;100.00;101981.53;5010711;28;20037;-81
2024/02/04 06:29:20;;;;;;;28.27;12.15;;;;;;;9.18;100.00;101980.13;5007107;28;20049;-81
2024/02/04 06:31:46;;;;;;;27.30;11.57;;;;;;;9.18;100.00;101969.78;5011662;28;20048;-80
2024/02/04 06:34:12;;;;;;;24.35;11.27;;;;;;;9.27;100.00;101969.06;4993641;28;20033;-79
2024/02/04 06:36:38;;;;;;;23.60;11.43;;;;;;;9.26;100.00;101965.66;4994481;28;20121;-80
2024/02/04 06:39:03;;;;;;;27.40;11.80;;;;;;;9.18;100.00;101957.66;4994519;28;20040;-78
2024/02/04 06:41:29;;;;;;;25.42;10.38;;;;;;;9.28;100.00;101965.53;5006484;28;20034;-80
2024/02/04 06:43:54;;;;;;;25.05;10.80;;;;;;;9.20;100.00;101966.13;5023287;28;20026;-80
2024/02/04 06:46:27;;;;;;;21.15;10.95;;;;;;;9.19;100.00;101959.28;5010320;28;20034;-81
2024/02/04 06:48:53;;;;;;;18.02;9.95;;;;;;;9.38;100.00;101973.41;5013698;28;20061;-81
2024/02/04 06:51:19;;;;;;;19.73;9.82;;;;;;;9.24;100.00;101967.53;4993647;28;20069;-81
2024/02/04 06:53:45;;;;;;;20.95;8.98;;;;;;;9.14;100.00;101956.25;4994026;28;20117;-81
2024/02/04 06:56:10;;;;;;;17.40;7.80;;;;;;;9.14;100.00;101961.44;4995587;28;20519;-80
2024/02/04 06:58:40;;;;;;;18.33;9.60;;;;;;;9.15;100.00;101956.16;5009550;28;20099;-81
2024/02/04 07:01:05;;;;;;;15.40;8.35;;;;;;;9.26;100.00;101954.47;5010894;28;20084;-79
2024/02/04 07:03:32;;;;;;;13.85;7.10;;;;;;;9.19;100.00;101948.94;5007375;28;20443;-81
2024/02/04 07:06:00;;;;;;;12.85;6.88;;;;;;;9.25;100.00;101951.06;4991956;28;20157;-80
2024/02/04 07:08:27;;;;;;;11.23;6.45;;;;;;;9.22;100.00;101956.47;5014914;28;20484;-81
2024/02/04 07:10:52;;;;;;;10.70;6.30;;;;;;;9.24;100.00;101961.53;5008983;28;20037;-80
2024/02/04 07:13:19;;;;;;;12.68;5.95;;;;;;;9.25;100.00;101958.84;5012747;28;21243;-79
2024/02/04 07:15:45;;;;;;;11.35;6.38;;;;;;;9.14;100.00;101959.66;4995600;28;20175;-80
2024/02/04 07:18:11;;;;;;;33.25;15.90;;;;;;;9.14;100.00;101961.44;5007852;28;20030;-79
2024/02/04 07:20:37;;;;;;;38.20;19.52;;;;;;;9.11;100.00;101972.00;4997998;28;20112;-80
2024/02/04 07:23:04;;;;;;;21.52;9.70;;;;;;;9.28;100.00;101974.09;5026909;28;20034;-80
2024/02/04 07:25:30;;;;;;;13.27;7.38;;;;;;;9.21;100.00;101970.38;5024697;28;20561;-80
2024/02/04 07:27:56;;;;;;;12.75;7.10;;;;;;;9.25;100.00;101976.09;4996775;28;20053;-81
2024/02/04 07:30:22;;;;;;;8.90;5.78;;;;;;;9.16;100.00;101964.72;5010876;28;20049;-82
2024/02/04 07:32:47;;;;;;;13.43;8.35;;;;;;;9.15;100.00;101969.09;5026640;28;20431;-80
2024/02/04 07:35:13;;;;;;;14.85;7.57;;;;;;;9.25;100.00;101976.97;4992444;28;20069;-79
2024/02/04 07:37:38;;;;;;;17.67;8.93;;;;;;;9.20;100.00;101989.41;5026344;28;20038;-79
2024/02/04 07:40:07;;;;;;;16.80;7.68;;;;;;;9.23;100.00;101989.19;4996109;28;20038;-80
2024/02/04 07:42:33;;;;;;;14.95;6.97;;;;;;;9.22;100.00;101979.78;5001218;28;20022;-81
2024/02/04 07:44:59;;;;;;;15.48;7.07;;;;;;;9.23;100.00;101978.00;5012584;28;20511;-80
2024/02/04 07:47:24;;;;;;;11.43;6.70;;;;;;;9.18;100.00;101982.72;5009921;28;20465;-80
2024/02/04 07:49:50;;;;;;;13.35;6.78;;;;;;;9.26;100.00;101970.81;5008872;28;20451;-78
2024/02/04 07:52:16;;;;;;;12.65;7.05;;;;;;;9.23;100.00;101975.41;4991656;28;20048;-80
2024/02/04 07:54:43;;;;;;;11.88;7.03;;;;;;;9.21;100.00;101967.78;4993936;28;20103;-80
2024/02/04 07:57:09;;;;;;;16.17;7.35;;;;;;;9.39;100.00;101965.53;4992684;28;20030;-80
2024/02/04 07:59:35;;;;;;;13.70;7.03;;;;;;;9.29;100.00;101970.59;4998261;28;20124;-80
2024/02/04 08:02:01;;;;;;;17.73;7.15;;;;;;;9.31;100.00;101973.88;5011550;28;20037;-80
2024/02/04 08:04:26;;;;;;;11.68;6.63;;;;;;;9.30;100.00;101977.41;5013260;28;20501;-79
2024/02/04 08:06:52;;;;;;;15.07;7.60;;;;;;;9.33;100.00;101978.94;5008174;28;20018;-80
2024/02/04 08:09:18;;;;;;;13.40;6.63;;;;;;;9.26;100.00;101970.81;5011889;28;20065;-78
2024/02/04 08:11:43;;;;;;;11.70;6.90;;;;;;;9.27;100.00;101967.31;5012244;28;20115;-80
2024/02/04 08:14:09;;;;;;;13.27;6.75;;;;;;;9.27;100.00;101959.53;4992962;28;20050;-79
2024/02/04 08:16:34;;;;;;;14.82;6.63;;;;;;;9.28;100.00;101968.13;5010124;28;20034;-80
2024/02/04 08:19:00;;;;;;;13.10;6.43;;;;;;;9.37;100.00;101959.63;5016874;28;20029;-80
2024/02/04 08:21:26;;;;;;;12.05;6.43;;;;;;;9.38;100.00;101963.88;5009424;28;20701;-79
2024/02/04 08:23:51;;;;;;;14.63;6.22;;;;;;;9.32;100.00;101954.00;5014341;28;20034;-79
2024/02/04 08:26:17;;;;;;;16.08;7.68;;;;;;;9.37;100.00;101966.59;4999598;28;20076;-79
2024/02/04 08:28:42;;;;;;;13.07;6.63;;;;;;;9.48;100.00;101969.16;5000316;28;20585;-79
2024/02/04 08:31:08;;;;;;;14.15;6.68;;;;;;;9.46;100.00;101968.47;5005128;28;20464;-79
2024/02/04 08:33:33;;;;;;;16.42;8.15;;;;;;;9.47;100.00;101955.38;5009331;28;20059;-80
2024/02/04 08:35:59;;;;;;;16.42;8.68;;;;;;;9.51;100.00;101959.41;5007923;28;20045;-80
2024/02/04 08:38:24;;;;;;;15.15;8.15;;;;;;;9.48;100.00;101964.81;5010737;28;20072;-79
2024/02/04 08:40:50;;;;;;;13.63;8.30;;;;;;;9.52;100.00;101949.84;5006130;28;20030;-78
2024/02/04 08:43:15;;;;;;;18.08;8.38;;;;;;;9.57;100.00;101952.06;5003301;28;20449;-78
2024/02/04 08:45:42;;;;;;;18.20;8.10;;;;;;;9.50;100.00;101942.19;4989850;28;20038;-79
2024/02/04 08:48:07;;;;;;;14.18;7.32;;;;;;;9.51;100.00;101951.63;5023324;28;20088;-80
2024/02/04 08:50:33;;;;;;;15.07;8.40;;;;;;;9.59;100.00;101948.44;5004728;28;20597;-79
2024/02/04 08:52:58;;;;;;;19.08;8.02;;;;;;;9.49;100.00;101953.53;5006560;28;20049;-78
2024/02/04 08:55:24;;;;;;;14.15;7.68;;;;;;;9.49;100.00;101961.28;5010635;28;20034;-79
2024/02/04 08:57:49;;;;;;;15.40;7.50;;;;;;;9.50;100.00;101949.16;5023999;28;20038;-82
2024/02/04 09:00:15;;;;;;;13.35;8.05;;;;;;;9.48;100.00;101959.63;4988140;28;20046;-81
2024/02/04 09:02:41;;;;;;;13.80;7.32;;;;;;;9.48;100.00;101961.41;5005901;28;20038;-80
2024/02/04 09:05:07;;;;;;;15.00;7.50;;;;;;;9.47;100.00;101964.91;5005972;28;20037;-79
2024/02/04 09:07:32;;;;;;;13.80;7.65;;;;;;;9.45;100.00;101954.69;5004408;28;20038;-81
2024/02/04 09:09:58;;;;;;;26.13;12.98;;;;;;;9.41;100.00;101965.41;5007054;28;20042;-80
2024/02/04 09:12:23;;;;;;;30.23;16.08;;;;;;;9.48;100.00;101959.63;5006135;28;20049;-79
2024/02/04 09:14:49;;;;;;;28.15;15.15;;;;;;;9.53;100.00;101967.00;4987205;28;20043;-80
2024/02/04 09:17:14;;;;;;;21.63;9.55;;;;;;;9.55;100.00;101972.94;5023305;28;20041;-80
2024/02/04 09:19:40;;;;;;;21.85;10.80;;;;;;;9.58;100.00;101971.84;5005201;28;20061;-79
2024/02/04 09:22:05;;;;;;;21.98;10.13;;;;;;;9.54;100.00;101979.84;5009566;28;20153;-78
2024/02/04 09:24:31;;;;;;;19.23;10.18;;;;;;;9.61;100.00;101969.03;4990021;28;20096;-81
2024/02/04 09:26:56;;;;;;;16.85;9.45;;;;;;;9.59;100.00;101976.06;5009494;28;20068;-80
2024/02/04 09:29:21;;;;;;;12.20;6.65;;;;;;;9.68;100.00;101980.53;5006714;28;20030;-80
2024/02/04 09:31:49;;;;;;;14.55;6.80;;;;;;;9.69;100.00;101970.06;5007650;28;20449;-79
2024/02/04 09:34:14;;;;;;;14.45;7.63;;;;;;;9.74;100.00;101970.53;5007066;28;20552;-79
2024/02/04 09:36:40;;;;;;;16.25;7.70;;;;;;;9.78;100.00;101965.91;5010097;28;20032;-80
2024/02/04 09:39:06;;;;;;;13.93;7.45;;;;;;;9.71;100.00;101969.94;5002900;28;20053;-78
2024/02/04 09:41:31;;;;;;;14.98;8.55;;;;;;;9.75;100.00;101966.16;4991052;28;20023;-80
2024/02/04 09:43:59;;;;;;;9.18;5.82;;;;;;;9.82;100.00;101967.31;4990961;28;20389;-80
2024/02/04 09:46:25;;;;;;;15.98;7.57;;;;;;;9.75;100.00;101966.97;4987570;28;20400;-81
2024/02/04 09:48:52;;;;;;;14.68;7.88;;;;;;;9.80;100.00;101952.84;4992042;28;20040;-79
2024/02/04 09:51:17;;;;;;;12.05;6.63;;;;;;;9.81;100.00;101951.88;5009978;28;20133;-80
2024/02/04 09:53:45;;;;;;;15.20;6.55;;;;;;;9.82;100.00;101944.00;5009140;28;20116;-80
2024/02/04 09:56:12;;;;;;;12.57;5.97;;;;;;;9.81;100.00;101941.53;5011755;28;20059;-79
2024/02/04 09:58:37;;;;;;;10.85;5.45;;;;;;;9.90;100.00;101951.16;5009545;28;20045;-78
2024/02/04 10:01:04;;;;;;;16.60;6.72;;;;;;;9.95;100.00;101949.03;5006093;28;20034;-78
2024/02/04 10:03:30;;;;;;;14.75;6.20;;;;;;;9.90;100.00;101954.56;5032170;28;20482;-79
2024/02/04 10:05:56;;;;;;;12.52;6.07;;;;;;;10.12;100.00;101945.06;4993097;28;20042;-79
2024/02/04 10:08:22;;;;;;;12.38;6.32;;;;;;;10.22;100.00;101955.50;5027281;28;20057;-78
2024/02/04 10:10:48;;;;;;;16.10;5.75;;;;;;;10.14;100.00;101954.34;4991595;28;20041;-79
2024/02/04 10:13:17;;;;;;;14.63;7.05;;;;;;;10.12;100.00;101951.06;4990370;28;20099;-81
2024/02/04 10:15:42;;;;;;;20.38;7.63;;;;;;;10.01;100.00;101951.09;4995153;28;20049;-81
2024/02/04 10:18:08;;;;;;;13.50;6.20;;;;;;;10.05;100.00;101955.09;5001199;28;20102;-81
2024/02/04 10:20:34;;;;;;;18.20;6.95;;;;;;;9.99;100.00;101949.59;5007989;28;20116;-81
2024/02/04 10:23:00;;;;;;;13.77;6.80;;;;;;;9.91;100.00;101952.81;5011566;28;20034;-80
2024/02/04 10:25:26;;;;;;;12.80;6.72;;;;;;;9.97;100.00;101954.09;5013443;28;20408;-81
2024/02/04 10:27:53;;;;;;;16.45;6.68;;;;;;;9.97;100.00;101954.09;5016038;28;20025;-80
2024/02/04 10:30:20;;;;;;;15.07;7.13;;;;;;;9.98;100.00;101955.72;5010875;28;20108;-80
2024/02/04 10:32:46;;;;;;;13.63;7.07;;;;;;;10.04;100.00;101952.63;4995000;28;20129;-80
2024/02/04 10:35:11;;;;;;;14.18;6.40;;;;;;;10.01;100.00;101952.88;4990638;28;20038;-80
2024/02/04 10:37:37;;;;;;;15.02;6.93;;;;;;;10.02;100.00;101959.69;5009791;28;20116;-81
2024/02/04 10:40:03;;;;;;;15.80;6.38;;;;;;;10.09;100.00;101947.91;4990536;28;20031;-80
2024/02/04 10:42:30;;;;;;;16.33;7.35;;;;;;;10.06;100.00;101966.31;5012115;28;20029;-79
2024/02/04 10:44:58;;;;;;;59.63;17.48;;;;;;;10.17;100.00;101945.53;4991822;28;20125;-79
2024/02/04 10:47:32;;;;;;;27.60;11.55;;;;;;;10.16;100.00;101956.81;5010185;28;20038;-79
2024/02/04 10:49:59;;;;;;;22.27;11.35;;;;;;;10.17;100.00;101960.22;4994791;28;20030;-78
2024/02/04 10:52:27;;;;;;;25.23;10.02;;;;;;;10.11;100.00;101957.22;4996896;28;20040;-79
2024/02/04 10:54:53;;;;;;;23.60;9.98;;;;;;;10.07;100.00;101958.38;5010193;28;20034;-78
2024/02/04 10:57:31;;;;;;;19.00;8.30;;;;;;;10.17;100.00;101966.25;5010634;28;20055;-81
2024/02/04 10:59:58;;;;;;;16.15;8.15;;;;;;;10.11;100.00;101954.63;4991042;28;20038;-80
2024/02/04 11:02:24;;;;;;;34.58;14.35;;;;;;;10.13;100.00;101957.06;5008324;28;20034;-80
2024/02/04 11:04:50;;;;;;;16.50;8.20;;;;;;;10.22;100.00;101961.50;5027315;28;20069;-81
2024/02/04 11:07:18;;;;;;;17.38;8.43;;;;;;;10.18;100.00;101956.69;5025769;28;20441;-80
2024/02/04 11:09:48;;;;;;;18.90;8.02;;;;;;;10.26;100.00;101951.69;5012107;28;20041;-80